Etusivu
METAR-TAF:

METAR-TAF

Lentoasemat :

Cape Peel West, Nunavut, Kanada

Leveyspiiri: 69-02N, Pituuspiiri: 107-49W, korkeus merenpinnasta: 165 m

Tämänhetkinen sää

Tämä raportti tehtiin 38 minuuttia sitten, kello 15.00 UTC
Tuuli 29 kn idästä/koillisesta
Lämpötila -28°C
Kosteus 68%
Ilmanpaine 992 hPa
Pilvistä 300 ft:n korkeudessa

METAR: CWPX 201500Z AUTO 07029KT ////SM //// OVC003 M28/M32 A2929

Aika: 08:38 (15:38 UTC)


TAF: puuttuu

Säähavainnot ja -ennusteet yli 4000 lentoasemalta (METAR- ja TAF-raportit).

Käytössä olevat sääasemat on merkitty karttaan keltaisilla ja punaisilla pisteillä.

Aseta hiiri pisteen päälle nähdäksesi sääaseman nimen.

Klikkaa sitten nähdäksesi säähavainnot ja -ennusteet.

Kartan vaihtaminen: klikkaa mustalla rastilla varustettuja vihreitä pisteitä, niin voit zoomata sisään; viivalla varustettua vihreää pistettä, niin voit zoomata ulos tai vihreitä nuolia, niin pääset viereisille kartoille.


METAR-TAF: